CLP2 weather

Montreal / Laval (Artopex Plus) Heliport
Montréal, Quebec, Canada

Public forecast

Using degrees Celsius for public forecast. Weather courtesy of forecast.io.

Closest aviation weather report (METAR) to Montreal / Laval (Artopex Plus) Heliport

Closest report is Montreal / Pierre Elliott Trudeau International Airport, 6.5 nm (12.0 km) S. Retrieved 2019/10/23 09:00 UTC (40 minutes ago):

CYUL 230900Z 19007KT 7SM -RA FEW006 FEW020 OVC075 12/11 A2977 RMK SF1SC2AC6 SF TR SLP082

Closest aviation forecast (TAF) to Montreal / Laval (Artopex Plus) Heliport

Closest forecast is Montreal / Pierre Elliott Trudeau International Airport, 6.5 nm (12.0 km) S. Retrieved 2019/10/23 09:42 UTC (0 seconds ago):

TAF CYUL 230838Z 2309/2406 17010KT P6SM -RA SCT010 OVC030 TEMPO 2309/2310 5SM -RA BR BKN009 OVC025 FM231100 22010KT P6SM FEW012 SCT050 FM231500 24015G25KT P6SM BKN025 TEMPO 2315/2317 BKN020 FM231700 24015G28KT P6SM BKN030 BECMG 2322/2324 24012KT RMK NXT FCST BY 231200Z